sensor_id;sensor_type;location;lat;lon;timestamp;P1;durP1;ratioP1;P2;durP2;ratioP2
43606;SDS011;29197;44.788;10.366;2023-07-29T00:01:30;3.00;;;1.90;;
43606;SDS011;29197;44.788;10.366;2023-07-29T00:04:19;4.20;;;1.80;;
43606;SDS011;29197;44.788;10.366;2023-07-29T00:07:08;3.30;;;1.70;;
43606;SDS011;29197;44.788;10.366;2023-07-29T00:09:56;2.90;;;1.92;;
43606;SDS011;29197;44.788;10.366;2023-07-29T00:12:45;2.50;;;1.63;;
43606;SDS011;29197;44.788;10.366;2023-07-29T00:15:33;5.07;;;2.10;;
43606;SDS011;29197;44.788;10.366;2023-07-29T00:18:23;4.38;;;2.15;;
43606;SDS011;29197;44.788;10.366;2023-07-29T00:21:12;4.53;;;2.08;;
43606;SDS011;29197;44.788;10.366;2023-07-29T00:24:01;5.15;;;1.98;;
43606;SDS011;29197;44.788;10.366;2023-07-29T00:26:49;3.42;;;2.00;;
43606;SDS011;29197;44.788;10.366;2023-07-29T00:29:38;3.40;;;1.90;;
43606;SDS011;29197;44.788;10.366;2023-07-29T00:32:26;4.93;;;2.17;;
43606;SDS011;29197;44.788;10.366;2023-07-29T00:35:18;2.58;;;1.92;;
43606;SDS011;29197;44.788;10.366;2023-07-29T00:38:07;3.63;;;2.10;;
43606;SDS011;29197;44.788;10.366;2023-07-29T00:40:55;3.70;;;1.83;;
43606;SDS011;29197;44.788;10.366;2023-07-29T00:43:45;3.72;;;2.00;;
43606;SDS011;29197;44.788;10.366;2023-07-29T00:46:34;2.47;;;1.67;;
43606;SDS011;29197;44.788;10.366;2023-07-29T00:49:25;2.35;;;1.90;;
43606;SDS011;29197;44.788;10.366;2023-07-29T00:52:15;3.47;;;1.92;;
43606;SDS011;29197;44.788;10.366;2023-07-29T00:55:04;3.78;;;2.33;;
43606;SDS011;29197;44.788;10.366;2023-07-29T00:57:54;3.38;;;2.13;;
43606;SDS011;29197;44.788;10.366;2023-07-29T01:00:43;7.15;;;2.85;;
43606;SDS011;29197;44.788;10.366;2023-07-29T01:03:31;3.55;;;2.17;;
43606;SDS011;29197;44.788;10.366;2023-07-29T01:06:21;2.65;;;2.13;;
43606;SDS011;29197;44.788;10.366;2023-07-29T01:09:20;3.42;;;1.92;;
43606;SDS011;29197;44.788;10.366;2023-07-29T01:12:21;2.45;;;2.00;;
43606;SDS011;29197;44.788;10.366;2023-07-29T01:15:16;5.32;;;2.20;;
43606;SDS011;29197;44.788;10.366;2023-07-29T01:18:08;3.90;;;2.33;;
43606;SDS011;29197;44.788;10.366;2023-07-29T01:21:03;3.78;;;2.20;;
43606;SDS011;29197;44.788;10.366;2023-07-29T01:23:59;4.53;;;1.98;;
43606;SDS011;29197;44.788;10.366;2023-07-29T01:26:47;2.15;;;1.90;;
43606;SDS011;29197;44.788;10.366;2023-07-29T01:29:36;5.65;;;1.92;;
43606;SDS011;29197;44.788;10.366;2023-07-29T01:32:25;2.20;;;1.48;;
43606;SDS011;29197;44.788;10.366;2023-07-29T01:35:21;3.30;;;2.05;;
43606;SDS011;29197;44.788;10.366;2023-07-29T01:38:13;2.67;;;2.25;;
43606;SDS011;29197;44.788;10.366;2023-07-29T01:41:07;4.65;;;2.58;;
43606;SDS011;29197;44.788;10.366;2023-07-29T01:43:56;2.95;;;1.98;;
43606;SDS011;29197;44.788;10.366;2023-07-29T01:46:46;3.38;;;2.28;;
43606;SDS011;29197;44.788;10.366;2023-07-29T01:49:35;4.55;;;2.20;;
43606;SDS011;29197;44.788;10.366;2023-07-29T01:52:23;4.32;;;2.60;;
43606;SDS011;29197;44.788;10.366;2023-07-29T01:55:12;2.85;;;2.15;;
43606;SDS011;29197;44.788;10.366;2023-07-29T01:58:02;3.03;;;2.30;;
43606;SDS011;29197;44.788;10.366;2023-07-29T02:00:51;3.03;;;2.05;;
43606;SDS011;29197;44.788;10.366;2023-07-29T02:03:39;5.80;;;2.55;;
43606;SDS011;29197;44.788;10.366;2023-07-29T02:06:28;3.83;;;2.67;;
43606;SDS011;29197;44.788;10.366;2023-07-29T02:09:16;2.97;;;2.30;;
43606;SDS011;29197;44.788;10.366;2023-07-29T02:12:05;4.30;;;2.40;;
43606;SDS011;29197;44.788;10.366;2023-07-29T02:14:55;4.00;;;2.55;;
43606;SDS011;29197;44.788;10.366;2023-07-29T02:17:44;2.85;;;2.28;;
43606;SDS011;29197;44.788;10.366;2023-07-29T02:20:33;3.78;;;2.30;;
43606;SDS011;29197;44.788;10.366;2023-07-29T02:23:21;3.88;;;2.50;;
43606;SDS011;29197;44.788;10.366;2023-07-29T02:26:10;4.30;;;2.75;;
43606;SDS011;29197;44.788;10.366;2023-07-29T02:28:58;3.97;;;2.38;;
43606;SDS011;29197;44.788;10.366;2023-07-29T02:31:48;2.90;;;2.57;;
43606;SDS011;29197;44.788;10.366;2023-07-29T02:34:37;5.90;;;2.67;;
43606;SDS011;29197;44.788;10.366;2023-07-29T02:37:25;5.15;;;2.90;;
43606;SDS011;29197;44.788;10.366;2023-07-29T02:40:14;5.18;;;3.03;;
43606;SDS011;29197;44.788;10.366;2023-07-29T02:43:02;3.50;;;2.65;;
43606;SDS011;29197;44.788;10.366;2023-07-29T02:45:51;5.50;;;2.92;;
43606;SDS011;29197;44.788;10.366;2023-07-29T02:48:41;5.65;;;3.20;;
43606;SDS011;29197;44.788;10.366;2023-07-29T02:51:30;4.40;;;2.85;;
43606;SDS011;29197;44.788;10.366;2023-07-29T02:54:19;4.22;;;3.30;;
43606;SDS011;29197;44.788;10.366;2023-07-29T02:57:07;3.65;;;2.60;;
43606;SDS011;29197;44.788;10.366;2023-07-29T02:59:56;4.18;;;2.55;;
43606;SDS011;29197;44.788;10.366;2023-07-29T03:02:44;2.78;;;2.33;;
43606;SDS011;29197;44.788;10.366;2023-07-29T03:05:34;4.40;;;3.08;;
43606;SDS011;29197;44.788;10.366;2023-07-29T03:08:24;3.95;;;2.50;;
43606;SDS011;29197;44.788;10.366;2023-07-29T03:11:13;4.40;;;3.25;;
43606;SDS011;29197;44.788;10.366;2023-07-29T03:14:02;4.78;;;3.33;;
43606;SDS011;29197;44.788;10.366;2023-07-29T03:16:51;4.30;;;3.15;;
43606;SDS011;29197;44.788;10.366;2023-07-29T03:19:40;4.80;;;2.72;;
43606;SDS011;29197;44.788;10.366;2023-07-29T03:22:30;5.22;;;3.08;;
43606;SDS011;29197;44.788;10.366;2023-07-29T03:25:18;7.03;;;3.90;;
43606;SDS011;29197;44.788;10.366;2023-07-29T03:28:07;5.10;;;3.47;;
43606;SDS011;29197;44.788;10.366;2023-07-29T03:30:56;6.10;;;3.72;;
43606;SDS011;29197;44.788;10.366;2023-07-29T03:33:44;3.67;;;2.80;;
43606;SDS011;29197;44.788;10.366;2023-07-29T03:36:33;6.38;;;3.33;;
43606;SDS011;29197;44.788;10.366;2023-07-29T03:39:23;4.68;;;4.00;;
43606;SDS011;29197;44.788;10.366;2023-07-29T03:42:12;4.35;;;2.50;;
43606;SDS011;29197;44.788;10.366;2023-07-29T03:45:00;4.60;;;3.20;;
43606;SDS011;29197;44.788;10.366;2023-07-29T03:47:49;3.90;;;3.40;;
43606;SDS011;29197;44.788;10.366;2023-07-29T03:50:38;4.20;;;2.92;;
43606;SDS011;29197;44.788;10.366;2023-07-29T03:53:26;5.80;;;3.97;;
43606;SDS011;29197;44.788;10.366;2023-07-29T03:56:16;6.65;;;4.10;;
43606;SDS011;29197;44.788;10.366;2023-07-29T03:59:05;5.32;;;3.53;;
43606;SDS011;29197;44.788;10.366;2023-07-29T04:01:53;3.63;;;3.22;;
43606;SDS011;29197;44.788;10.366;2023-07-29T04:04:42;5.43;;;3.13;;
43606;SDS011;29197;44.788;10.366;2023-07-29T04:07:34;4.18;;;3.10;;
43606;SDS011;29197;44.788;10.366;2023-07-29T04:10:23;4.15;;;2.85;;
43606;SDS011;29197;44.788;10.366;2023-07-29T04:13:13;6.03;;;3.55;;
43606;SDS011;29197;44.788;10.366;2023-07-29T04:16:02;7.72;;;3.00;;
43606;SDS011;29197;44.788;10.366;2023-07-29T04:18:50;5.18;;;3.42;;
43606;SDS011;29197;44.788;10.366;2023-07-29T04:21:39;7.07;;;3.53;;
43606;SDS011;29197;44.788;10.366;2023-07-29T04:24:27;7.75;;;3.63;;
43606;SDS011;29197;44.788;10.366;2023-07-29T04:27:16;4.00;;;2.75;;
43606;SDS011;29197;44.788;10.366;2023-07-29T04:30:07;4.20;;;2.83;;
43606;SDS011;29197;44.788;10.366;2023-07-29T04:32:56;6.90;;;3.63;;
43606;SDS011;29197;44.788;10.366;2023-07-29T04:35:45;4.25;;;3.20;;
43606;SDS011;29197;44.788;10.366;2023-07-29T04:38:33;4.35;;;2.70;;
43606;SDS011;29197;44.788;10.366;2023-07-29T04:41:22;4.32;;;2.75;;
43606;SDS011;29197;44.788;10.366;2023-07-29T04:44:10;6.38;;;3.90;;
43606;SDS011;29197;44.788;10.366;2023-07-29T04:47:00;3.80;;;2.75;;
43606;SDS011;29197;44.788;10.366;2023-07-29T04:49:49;4.20;;;2.80;;
43606;SDS011;29197;44.788;10.366;2023-07-29T04:52:38;4.75;;;3.63;;
43606;SDS011;29197;44.788;10.366;2023-07-29T04:55:26;7.10;;;4.00;;
43606;SDS011;29197;44.788;10.366;2023-07-29T04:58:15;4.22;;;3.15;;
43606;SDS011;29197;44.788;10.366;2023-07-29T05:01:04;4.30;;;3.00;;
43606;SDS011;29197;44.788;10.366;2023-07-29T05:03:54;5.07;;;2.88;;
43606;SDS011;29197;44.788;10.366;2023-07-29T05:06:42;6.10;;;3.15;;
43606;SDS011;29197;44.788;10.366;2023-07-29T05:09:31;5.55;;;3.40;;
43606;SDS011;29197;44.788;10.366;2023-07-29T05:12:19;2.85;;;2.55;;
43606;SDS011;29197;44.788;10.366;2023-07-29T05:15:08;6.00;;;3.03;;
43606;SDS011;29197;44.788;10.366;2023-07-29T05:17:57;7.32;;;3.60;;
43606;SDS011;29197;44.788;10.366;2023-07-29T05:20:47;6.38;;;3.30;;
43606;SDS011;29197;44.788;10.366;2023-07-29T05:23:36;4.63;;;2.97;;
43606;SDS011;29197;44.788;10.366;2023-07-29T05:26:24;2.85;;;2.35;;
43606;SDS011;29197;44.788;10.366;2023-07-29T05:29:13;3.00;;;2.70;;
43606;SDS011;29197;44.788;10.366;2023-07-29T05:32:02;3.83;;;2.83;;
43606;SDS011;29197;44.788;10.366;2023-07-29T05:34:51;5.28;;;3.13;;
43606;SDS011;29197;44.788;10.366;2023-07-29T05:37:41;5.68;;;4.07;;
43606;SDS011;29197;44.788;10.366;2023-07-29T05:40:29;5.88;;;3.50;;
43606;SDS011;29197;44.788;10.366;2023-07-29T05:43:18;4.93;;;3.08;;
43606;SDS011;29197;44.788;10.366;2023-07-29T05:46:06;6.47;;;4.53;;
43606;SDS011;29197;44.788;10.366;2023-07-29T05:48:55;4.40;;;3.05;;
43606;SDS011;29197;44.788;10.366;2023-07-29T05:51:44;4.35;;;2.83;;
43606;SDS011;29197;44.788;10.366;2023-07-29T05:54:34;7.82;;;4.22;;
43606;SDS011;29197;44.788;10.366;2023-07-29T05:57:22;5.05;;;3.13;;
43606;SDS011;29197;44.788;10.366;2023-07-29T06:00:11;4.10;;;3.13;;
43606;SDS011;29197;44.788;10.366;2023-07-29T06:03:00;7.18;;;4.22;;
43606;SDS011;29197;44.788;10.366;2023-07-29T06:05:49;6.75;;;3.53;;
43606;SDS011;29197;44.788;10.366;2023-07-29T06:08:40;6.43;;;3.83;;
43606;SDS011;29197;44.788;10.366;2023-07-29T06:11:30;5.03;;;4.07;;
43606;SDS011;29197;44.788;10.366;2023-07-29T06:14:19;8.20;;;3.30;;
43606;SDS011;29197;44.788;10.366;2023-07-29T06:17:07;4.60;;;3.05;;
43606;SDS011;29197;44.788;10.366;2023-07-29T06:19:58;3.95;;;2.88;;
43606;SDS011;29197;44.788;10.366;2023-07-29T06:22:46;6.65;;;4.25;;
43606;SDS011;29197;44.788;10.366;2023-07-29T06:25:35;5.75;;;3.63;;
43606;SDS011;29197;44.788;10.366;2023-07-29T06:28:25;6.57;;;3.63;;
43606;SDS011;29197;44.788;10.366;2023-07-29T06:31:14;5.13;;;2.60;;
43606;SDS011;29197;44.788;10.366;2023-07-29T06:34:02;3.58;;;2.90;;
43606;SDS011;29197;44.788;10.366;2023-07-29T06:36:51;5.65;;;3.70;;
43606;SDS011;29197;44.788;10.366;2023-07-29T06:39:39;6.50;;;3.45;;
43606;SDS011;29197;44.788;10.366;2023-07-29T06:42:28;3.03;;;2.55;;
43606;SDS011;29197;44.788;10.366;2023-07-29T06:45:18;4.00;;;3.38;;
43606;SDS011;29197;44.788;10.366;2023-07-29T06:48:07;3.30;;;2.08;;
43606;SDS011;29197;44.788;10.366;2023-07-29T06:50:55;5.45;;;2.28;;
43606;SDS011;29197;44.788;10.366;2023-07-29T06:53:47;3.67;;;2.40;;
43606;SDS011;29197;44.788;10.366;2023-07-29T06:56:35;8.07;;;2.60;;
43606;SDS011;29197;44.788;10.366;2023-07-29T06:59:25;8.27;;;3.83;;
43606;SDS011;29197;44.788;10.366;2023-07-29T07:02:15;7.55;;;4.65;;
43606;SDS011;29197;44.788;10.366;2023-07-29T07:05:03;5.75;;;3.20;;
43606;SDS011;29197;44.788;10.366;2023-07-29T07:07:52;3.20;;;2.53;;
43606;SDS011;29197;44.788;10.366;2023-07-29T07:10:41;5.88;;;2.05;;
43606;SDS011;29197;44.788;10.366;2023-07-29T07:13:29;4.10;;;2.65;;
43606;SDS011;29197;44.788;10.366;2023-07-29T07:16:18;3.25;;;2.63;;
43606;SDS011;29197;44.788;10.366;2023-07-29T07:19:08;4.90;;;2.42;;
43606;SDS011;29197;44.788;10.366;2023-07-29T07:21:56;4.05;;;2.22;;
43606;SDS011;29197;44.788;10.366;2023-07-29T07:24:45;5.07;;;2.58;;
43606;SDS011;29197;44.788;10.366;2023-07-29T07:27:34;4.72;;;2.40;;
43606;SDS011;29197;44.788;10.366;2023-07-29T07:30:22;4.65;;;2.50;;
43606;SDS011;29197;44.788;10.366;2023-07-29T07:33:11;4.93;;;2.72;;
43606;SDS011;29197;44.788;10.366;2023-07-29T07:36:02;5.90;;;3.15;;
43606;SDS011;29197;44.788;10.366;2023-07-29T07:38:51;4.53;;;2.60;;
43606;SDS011;29197;44.788;10.366;2023-07-29T07:41:40;4.13;;;2.28;;
43606;SDS011;29197;44.788;10.366;2023-07-29T07:44:28;5.80;;;2.75;;
43606;SDS011;29197;44.788;10.366;2023-07-29T07:47:17;4.90;;;2.28;;
43606;SDS011;29197;44.788;10.366;2023-07-29T07:50:06;3.25;;;2.20;;
43606;SDS011;29197;44.788;10.366;2023-07-29T07:52:56;3.13;;;2.05;;
43606;SDS011;29197;44.788;10.366;2023-07-29T07:55:44;3.72;;;2.25;;
43606;SDS011;29197;44.788;10.366;2023-07-29T07:58:33;3.28;;;2.35;;
43606;SDS011;29197;44.788;10.366;2023-07-29T08:01:22;5.25;;;2.70;;
43606;SDS011;29197;44.788;10.366;2023-07-29T08:04:11;4.97;;;2.53;;
43606;SDS011;29197;44.788;10.366;2023-07-29T08:06:59;2.38;;;1.88;;
43606;SDS011;29197;44.788;10.366;2023-07-29T08:09:49;4.90;;;2.25;;
43606;SDS011;29197;44.788;10.366;2023-07-29T08:12:37;5.95;;;2.58;;
43606;SDS011;29197;44.788;10.366;2023-07-29T08:15:26;3.90;;;2.17;;
43606;SDS011;29197;44.788;10.366;2023-07-29T08:18:15;4.70;;;2.20;;
43606;SDS011;29197;44.788;10.366;2023-07-29T08:21:03;4.10;;;2.75;;
43606;SDS011;29197;44.788;10.366;2023-07-29T08:23:52;5.13;;;2.15;;
43606;SDS011;29197;44.788;10.366;2023-07-29T08:26:42;3.08;;;2.00;;
43606;SDS011;29197;44.788;10.366;2023-07-29T08:29:30;4.85;;;2.33;;
43606;SDS011;29197;44.788;10.366;2023-07-29T08:32:19;4.28;;;2.42;;
43606;SDS011;29197;44.788;10.366;2023-07-29T08:35:07;5.90;;;2.72;;
43606;SDS011;29197;44.788;10.366;2023-07-29T08:37:56;5.07;;;2.53;;
43606;SDS011;29197;44.788;10.366;2023-07-29T08:40:48;3.67;;;2.20;;
43606;SDS011;29197;44.788;10.366;2023-07-29T08:43:45;5.95;;;2.83;;
43606;SDS011;29197;44.788;10.366;2023-07-29T08:46:38;3.00;;;2.20;;
43606;SDS011;29197;44.788;10.366;2023-07-29T08:49:27;6.30;;;2.78;;
43606;SDS011;29197;44.788;10.366;2023-07-29T08:52:17;4.35;;;2.30;;
43606;SDS011;29197;44.788;10.366;2023-07-29T08:55:07;5.13;;;2.45;;
43606;SDS011;29197;44.788;10.366;2023-07-29T08:57:56;5.93;;;2.67;;
43606;SDS011;29197;44.788;10.366;2023-07-29T09:00:47;3.88;;;2.45;;
43606;SDS011;29197;44.788;10.366;2023-07-29T09:03:36;3.95;;;2.60;;
43606;SDS011;29197;44.788;10.366;2023-07-29T09:06:25;5.50;;;2.75;;
43606;SDS011;29197;44.788;10.366;2023-07-29T09:09:14;6.43;;;3.13;;
43606;SDS011;29197;44.788;10.366;2023-07-29T09:12:03;6.78;;;3.22;;
43606;SDS011;29197;44.788;10.366;2023-07-29T09:14:53;4.32;;;2.72;;
43606;SDS011;29197;44.788;10.366;2023-07-29T09:17:45;4.75;;;2.30;;
43606;SDS011;29197;44.788;10.366;2023-07-29T09:20:33;4.28;;;2.22;;
43606;SDS011;29197;44.788;10.366;2023-07-29T09:23:22;5.45;;;2.58;;
43606;SDS011;29197;44.788;10.366;2023-07-29T09:26:11;3.80;;;2.20;;
43606;SDS011;29197;44.788;10.366;2023-07-29T09:29:00;3.00;;;2.15;;
43606;SDS011;29197;44.788;10.366;2023-07-29T09:31:48;5.53;;;2.40;;
43606;SDS011;29197;44.788;10.366;2023-07-29T09:34:40;4.40;;;2.42;;
43606;SDS011;29197;44.788;10.366;2023-07-29T09:37:29;5.65;;;2.50;;
43606;SDS011;29197;44.788;10.366;2023-07-29T09:40:19;6.40;;;2.90;;
43606;SDS011;29197;44.788;10.366;2023-07-29T09:43:09;5.20;;;2.50;;
43606;SDS011;29197;44.788;10.366;2023-07-29T09:45:59;5.38;;;2.40;;
43606;SDS011;29197;44.788;10.366;2023-07-29T09:48:48;5.22;;;2.60;;
43606;SDS011;29197;44.788;10.366;2023-07-29T09:51:39;3.65;;;2.47;;
43606;SDS011;29197;44.788;10.366;2023-07-29T09:54:28;2.88;;;2.50;;
43606;SDS011;29197;44.788;10.366;2023-07-29T09:57:18;4.20;;;2.78;;
43606;SDS011;29197;44.788;10.366;2023-07-29T10:00:07;4.85;;;2.30;;
43606;SDS011;29197;44.788;10.366;2023-07-29T10:03:00;4.70;;;2.53;;
43606;SDS011;29197;44.788;10.366;2023-07-29T10:05:49;7.25;;;2.40;;
43606;SDS011;29197;44.788;10.366;2023-07-29T10:08:39;7.93;;;2.50;;
43606;SDS011;29197;44.788;10.366;2023-07-29T10:11:28;6.22;;;2.70;;
43606;SDS011;29197;44.788;10.366;2023-07-29T10:14:18;3.50;;;2.30;;
43606;SDS011;29197;44.788;10.366;2023-07-29T10:17:08;2.53;;;1.90;;
43606;SDS011;29197;44.788;10.366;2023-07-29T10:19:57;6.05;;;3.00;;
43606;SDS011;29197;44.788;10.366;2023-07-29T10:22:47;3.65;;;2.05;;
43606;SDS011;29197;44.788;10.366;2023-07-29T10:25:38;2.95;;;1.98;;
43606;SDS011;29197;44.788;10.366;2023-07-29T10:28:31;2.58;;;2.17;;
43606;SDS011;29197;44.788;10.366;2023-07-29T10:31:21;3.83;;;2.33;;
43606;SDS011;29197;44.788;10.366;2023-07-29T10:34:11;2.00;;;1.80;;
43606;SDS011;29197;44.788;10.366;2023-07-29T10:37:01;3.58;;;2.22;;
43606;SDS011;29197;44.788;10.366;2023-07-29T10:39:53;5.90;;;2.50;;
43606;SDS011;29197;44.788;10.366;2023-07-29T10:45:43;4.72;;;2.85;;
43606;SDS011;29197;44.788;10.366;2023-07-29T10:51:42;2.22;;;1.98;;
43606;SDS011;29197;44.788;10.366;2023-07-29T10:54:41;3.58;;;2.30;;
43606;SDS011;29197;44.788;10.366;2023-07-29T10:57:31;3.28;;;2.30;;
43606;SDS011;29197;44.788;10.366;2023-07-29T11:00:21;3.97;;;2.63;;
43606;SDS011;29197;44.788;10.366;2023-07-29T11:03:12;2.25;;;1.67;;
43606;SDS011;29197;44.788;10.366;2023-07-29T11:06:04;3.28;;;2.53;;
43606;SDS011;29197;44.788;10.366;2023-07-29T11:08:52;4.00;;;2.40;;
43606;SDS011;29197;44.788;10.366;2023-07-29T11:11:41;3.30;;;2.20;;
43606;SDS011;29197;44.788;10.366;2023-07-29T11:14:30;3.22;;;1.95;;
43606;SDS011;29197;44.788;10.366;2023-07-29T11:17:18;4.78;;;2.40;;
43606;SDS011;29197;44.788;10.366;2023-07-29T11:20:09;4.38;;;2.03;;
43606;SDS011;29197;44.788;10.366;2023-07-29T11:22:59;3.78;;;2.17;;
43606;SDS011;29197;44.788;10.366;2023-07-29T11:25:49;3.42;;;2.17;;
43606;SDS011;29197;44.788;10.366;2023-07-29T11:28:38;3.05;;;2.13;;
43606;SDS011;29197;44.788;10.366;2023-07-29T11:31:38;4.15;;;2.25;;
43606;SDS011;29197;44.788;10.366;2023-07-29T11:34:31;2.35;;;1.95;;
43606;SDS011;29197;44.788;10.366;2023-07-29T11:37:21;3.42;;;2.45;;
43606;SDS011;29197;44.788;10.366;2023-07-29T11:40:12;3.95;;;1.80;;
43606;SDS011;29197;44.788;10.366;2023-07-29T11:43:02;3.78;;;2.00;;
43606;SDS011;29197;44.788;10.366;2023-07-29T11:45:51;4.80;;;2.65;;
43606;SDS011;29197;44.788;10.366;2023-07-29T11:48:40;3.15;;;2.10;;
43606;SDS011;29197;44.788;10.366;2023-07-29T11:51:32;3.17;;;2.17;;
43606;SDS011;29197;44.788;10.366;2023-07-29T11:54:22;2.40;;;1.70;;
43606;SDS011;29197;44.788;10.366;2023-07-29T11:57:12;4.07;;;2.00;;
43606;SDS011;29197;44.788;10.366;2023-07-29T12:00:02;3.60;;;2.00;;
43606;SDS011;29197;44.788;10.366;2023-07-29T12:02:53;2.15;;;1.65;;
43606;SDS011;29197;44.788;10.366;2023-07-29T12:05:42;2.28;;;1.55;;
43606;SDS011;29197;44.788;10.366;2023-07-29T12:08:31;3.70;;;1.77;;
43606;SDS011;29197;44.788;10.366;2023-07-29T12:11:21;2.35;;;1.63;;
43606;SDS011;29197;44.788;10.366;2023-07-29T12:14:10;3.85;;;2.13;;
43606;SDS011;29197;44.788;10.366;2023-07-29T12:16:59;2.45;;;2.05;;
43606;SDS011;29197;44.788;10.366;2023-07-29T12:19:48;3.03;;;1.88;;
43606;SDS011;29197;44.788;10.366;2023-07-29T12:22:37;3.55;;;1.92;;
43606;SDS011;29197;44.788;10.366;2023-07-29T12:25:26;2.25;;;1.83;;
43606;SDS011;29197;44.788;10.366;2023-07-29T12:28:16;2.00;;;1.80;;
43606;SDS011;29197;44.788;10.366;2023-07-29T12:31:07;3.22;;;1.67;;
43606;SDS011;29197;44.788;10.366;2023-07-29T12:33:56;1.83;;;1.55;;
43606;SDS011;29197;44.788;10.366;2023-07-29T12:36:45;2.38;;;2.05;;
43606;SDS011;29197;44.788;10.366;2023-07-29T12:39:38;2.28;;;2.08;;
43606;SDS011;29197;44.788;10.366;2023-07-29T12:42:28;3.20;;;1.88;;
43606;SDS011;29197;44.788;10.366;2023-07-29T12:45:18;3.47;;;1.98;;
43606;SDS011;29197;44.788;10.366;2023-07-29T12:48:09;5.30;;;2.08;;
43606;SDS011;29197;44.788;10.366;2023-07-29T12:50:58;2.00;;;1.50;;
43606;SDS011;29197;44.788;10.366;2023-07-29T12:53:47;2.65;;;1.80;;
43606;SDS011;29197;44.788;10.366;2023-07-29T12:56:36;2.25;;;1.58;;
43606;SDS011;29197;44.788;10.366;2023-07-29T12:59:25;3.72;;;1.92;;
43606;SDS011;29197;44.788;10.366;2023-07-29T13:02:15;2.20;;;1.50;;
43606;SDS011;29197;44.788;10.366;2023-07-29T13:05:04;3.72;;;2.22;;
43606;SDS011;29197;44.788;10.366;2023-07-29T13:07:53;5.07;;;2.28;;
43606;SDS011;29197;44.788;10.366;2023-07-29T13:10:42;5.47;;;2.17;;
43606;SDS011;29197;44.788;10.366;2023-07-29T13:13:31;5.65;;;2.17;;
43606;SDS011;29197;44.788;10.366;2023-07-29T13:16:20;2.67;;;1.90;;
43606;SDS011;29197;44.788;10.366;2023-07-29T13:19:10;2.33;;;1.90;;
43606;SDS011;29197;44.788;10.366;2023-07-29T13:21:59;2.47;;;2.00;;
43606;SDS011;29197;44.788;10.366;2023-07-29T13:24:48;6.95;;;2.20;;
43606;SDS011;29197;44.788;10.366;2023-07-29T13:27:37;3.70;;;2.20;;
43606;SDS011;29197;44.788;10.366;2023-07-29T13:30:26;2.08;;;1.88;;
43606;SDS011;29197;44.788;10.366;2023-07-29T13:33:14;3.10;;;1.75;;
43606;SDS011;29197;44.788;10.366;2023-07-29T13:36:05;2.08;;;1.70;;
43606;SDS011;29197;44.788;10.366;2023-07-29T13:38:55;2.53;;;1.55;;
43606;SDS011;29197;44.788;10.366;2023-07-29T13:41:43;2.92;;;2.10;;
43606;SDS011;29197;44.788;10.366;2023-07-29T13:44:32;2.55;;;2.00;;
43606;SDS011;29197;44.788;10.366;2023-07-29T13:47:20;2.20;;;1.85;;
43606;SDS011;29197;44.788;10.366;2023-07-29T13:50:09;3.58;;;2.03;;
43606;SDS011;29197;44.788;10.366;2023-07-29T13:53:00;2.08;;;1.85;;
43606;SDS011;29197;44.788;10.366;2023-07-29T13:55:48;4.38;;;2.28;;
43606;SDS011;29197;44.788;10.366;2023-07-29T13:58:37;3.00;;;1.80;;
43606;SDS011;29197;44.788;10.366;2023-07-29T14:01:26;2.90;;;1.98;;
43606;SDS011;29197;44.788;10.366;2023-07-29T14:04:16;3.38;;;2.45;;
43606;SDS011;29197;44.788;10.366;2023-07-29T14:07:05;6.43;;;1.95;;
43606;SDS011;29197;44.788;10.366;2023-07-29T14:09:55;2.70;;;2.05;;
43606;SDS011;29197;44.788;10.366;2023-07-29T14:12:47;3.65;;;1.50;;
43606;SDS011;29197;44.788;10.366;2023-07-29T14:15:36;4.88;;;1.90;;
43606;SDS011;29197;44.788;10.366;2023-07-29T14:18:24;3.38;;;1.67;;
43606;SDS011;29197;44.788;10.366;2023-07-29T14:21:13;3.00;;;1.70;;
43606;SDS011;29197;44.788;10.366;2023-07-29T14:24:02;2.80;;;1.92;;
43606;SDS011;29197;44.788;10.366;2023-07-29T14:26:52;3.50;;;2.05;;
43606;SDS011;29197;44.788;10.366;2023-07-29T14:29:40;2.53;;;2.10;;
43606;SDS011;29197;44.788;10.366;2023-07-29T14:32:29;3.47;;;2.10;;
43606;SDS011;29197;44.788;10.366;2023-07-29T14:35:17;2.03;;;1.58;;
43606;SDS011;29197;44.788;10.366;2023-07-29T14:38:06;2.58;;;2.15;;
43606;SDS011;29197;44.788;10.366;2023-07-29T14:40:54;6.70;;;2.13;;
43606;SDS011;29197;44.788;10.366;2023-07-29T14:43:45;2.80;;;1.95;;
43606;SDS011;29197;44.788;10.366;2023-07-29T14:46:33;2.00;;;1.52;;
43606;SDS011;29197;44.788;10.366;2023-07-29T14:49:22;3.35;;;1.88;;
43606;SDS011;29197;44.788;10.366;2023-07-29T14:52:11;3.33;;;1.92;;
43606;SDS011;29197;44.788;10.366;2023-07-29T14:55:00;3.33;;;1.90;;
43606;SDS011;29197;44.788;10.366;2023-07-29T14:57:48;2.25;;;2.03;;
43606;SDS011;29197;44.788;10.366;2023-07-29T15:00:38;4.55;;;1.98;;
43606;SDS011;29197;44.788;10.366;2023-07-29T15:03:27;4.40;;;2.38;;
43606;SDS011;29197;44.788;10.366;2023-07-29T15:06:16;2.65;;;2.10;;
43606;SDS011;29197;44.788;10.366;2023-07-29T15:09:04;3.25;;;2.08;;
43606;SDS011;29197;44.788;10.366;2023-07-29T15:11:53;3.90;;;2.40;;
43606;SDS011;29197;44.788;10.366;2023-07-29T15:14:44;3.65;;;1.90;;
43606;SDS011;29197;44.788;10.366;2023-07-29T15:17:35;2.83;;;2.28;;
43606;SDS011;29197;44.788;10.366;2023-07-29T15:20:24;3.28;;;2.17;;
43606;SDS011;29197;44.788;10.366;2023-07-29T15:23:13;2.13;;;1.85;;
43606;SDS011;29197;44.788;10.366;2023-07-29T15:26:01;1.77;;;1.50;;
43606;SDS011;29197;44.788;10.366;2023-07-29T15:28:50;2.88;;;2.05;;
43606;SDS011;29197;44.788;10.366;2023-07-29T15:31:39;2.55;;;1.90;;
43606;SDS011;29197;44.788;10.366;2023-07-29T15:34:29;3.13;;;2.05;;
43606;SDS011;29197;44.788;10.366;2023-07-29T15:37:18;3.05;;;1.80;;
43606;SDS011;29197;44.788;10.366;2023-07-29T15:40:07;4.78;;;2.22;;
43606;SDS011;29197;44.788;10.366;2023-07-29T15:42:56;4.65;;;2.22;;
43606;SDS011;29197;44.788;10.366;2023-07-29T15:45:45;3.15;;;1.90;;
43606;SDS011;29197;44.788;10.366;2023-07-29T15:48:33;2.33;;;1.83;;
43606;SDS011;29197;44.788;10.366;2023-07-29T15:51:23;3.53;;;2.40;;
43606;SDS011;29197;44.788;10.366;2023-07-29T15:54:12;3.78;;;2.38;;
43606;SDS011;29197;44.788;10.366;2023-07-29T15:57:00;3.67;;;2.20;;
43606;SDS011;29197;44.788;10.366;2023-07-29T15:59:49;5.72;;;2.45;;
43606;SDS011;29197;44.788;10.366;2023-07-29T16:02:38;3.10;;;2.25;;
43606;SDS011;29197;44.788;10.366;2023-07-29T16:05:27;2.75;;;1.92;;
43606;SDS011;29197;44.788;10.366;2023-07-29T16:08:16;4.22;;;2.47;;
43606;SDS011;29197;44.788;10.366;2023-07-29T16:11:05;3.10;;;2.15;;
43606;SDS011;29197;44.788;10.366;2023-07-29T16:13:54;3.85;;;2.22;;
43606;SDS011;29197;44.788;10.366;2023-07-29T16:16:42;5.40;;;2.88;;
43606;SDS011;29197;44.788;10.366;2023-07-29T16:19:31;5.32;;;2.67;;
43606;SDS011;29197;44.788;10.366;2023-07-29T16:22:19;3.80;;;2.40;;
43606;SDS011;29197;44.788;10.366;2023-07-29T16:25:09;3.75;;;2.30;;
43606;SDS011;29197;44.788;10.366;2023-07-29T16:27:58;5.82;;;2.40;;
43606;SDS011;29197;44.788;10.366;2023-07-29T16:30:46;4.03;;;2.20;;
43606;SDS011;29197;44.788;10.366;2023-07-29T16:33:35;3.40;;;2.47;;
43606;SDS011;29197;44.788;10.366;2023-07-29T16:36:24;3.45;;;2.42;;
43606;SDS011;29197;44.788;10.366;2023-07-29T16:39:12;3.47;;;2.28;;
43606;SDS011;29197;44.788;10.366;2023-07-29T16:42:02;4.85;;;2.55;;
43606;SDS011;29197;44.788;10.366;2023-07-29T16:44:51;4.75;;;3.05;;
43606;SDS011;29197;44.788;10.366;2023-07-29T16:47:40;4.03;;;3.00;;
43606;SDS011;29197;44.788;10.366;2023-07-29T16:50:29;4.03;;;2.60;;